LIRA/CIA METAR and TAF weather

Enter ICAO airport designator
Station Type Date Time Source
LIRA METAR 2019/10/15 08:20 UTC NOAA

LIRA 150820Z 14006KT 100V180 9999 SCT030 22/14 Q1017


Station Type Date Time Source
LIRA Decoded METAR 2019/10/15 08:20 UTC NOAA

Roma / Ciampino, Italy (LIRA) 41-47N 012-35E 105M
Oct 15, 2019 - 04:20 AM EDT / 2019.10.15 0820 UTC
Wind: from the SE (140 degrees) at 7 MPH (6 KT) (direction variable):0
Visibility: greater than 7 mile(s):0
Sky conditions: partly cloudy
Temperature: 71 F (22 C)
Dew Point: 57 F (14 C)
Relative Humidity: 60%
Pressure (altimeter): 30.03 in. Hg (1017 hPa)
ob: LIRA 150820Z 14006KT 100V180 9999 SCT030 22/14 Q1017
cycle: 8

Station Type Date Time Source
LIRA TAF 2019/10/15 06:21 UTC NOAA

TAF LIRA 150500Z 1506/1606 VRB05KT 9999 SCT040
BECMG 1508/1510 14012KT
TEMPO 1513/1521 TSRA

Example: see airport list